sensor_id;sensor_type;location;lat;lon;timestamp;pressure;altitude;pressure_sealevel;temperature;humidity
69306;BME280;56427;51.580;4.656;2022-12-29T00:01:44;99961.75;;;10.48;100.00
69306;BME280;56427;51.580;4.656;2022-12-29T00:04:12;99945.97;;;10.42;100.00
69306;BME280;56427;51.580;4.656;2022-12-29T00:06:38;99952.94;;;10.41;100.00
69306;BME280;56427;51.580;4.656;2022-12-29T00:09:03;99945.09;;;10.33;100.00
69306;BME280;56427;51.580;4.656;2022-12-29T00:11:28;99953.66;;;10.34;100.00
69306;BME280;56427;51.580;4.656;2022-12-29T00:13:54;99946.13;;;10.40;100.00
69306;BME280;56427;51.580;4.656;2022-12-29T00:16:41;99929.38;;;10.35;100.00
69306;BME280;56427;51.580;4.656;2022-12-29T00:19:08;99914.78;;;10.34;100.00
69306;BME280;56427;51.580;4.656;2022-12-29T00:21:53;99923.72;;;10.39;100.00
69306;BME280;56427;51.580;4.656;2022-12-29T00:24:37;99920.63;;;10.36;100.00
69306;BME280;56427;51.580;4.656;2022-12-29T00:27:21;99910.66;;;10.31;100.00
69306;BME280;56427;51.580;4.656;2022-12-29T00:30:10;99925.16;;;10.34;100.00
69306;BME280;56427;51.580;4.656;2022-12-29T00:32:54;99915.75;;;10.23;100.00
69306;BME280;56427;51.580;4.656;2022-12-29T00:35:43;99910.50;;;10.14;100.00
69306;BME280;56427;51.580;4.656;2022-12-29T00:38:10;99902.97;;;10.03;100.00
69306;BME280;56427;51.580;4.656;2022-12-29T00:40:56;99917.53;;;10.04;100.00
69306;BME280;56427;51.580;4.656;2022-12-29T00:43:40;99903.91;;;10.02;100.00
69306;BME280;56427;51.580;4.656;2022-12-29T00:46:24;99911.78;;;10.10;100.00
69306;BME280;56427;51.580;4.656;2022-12-29T00:48:49;99906.72;;;10.09;100.00
69306;BME280;56427;51.580;4.656;2022-12-29T00:51:33;99902.88;;;10.13;100.00
69306;BME280;56427;51.580;4.656;2022-12-29T00:53:58;99890.22;;;10.10;100.00
69306;BME280;56427;51.580;4.656;2022-12-29T00:56:23;99902.06;;;10.12;100.00
69306;BME280;56427;51.580;4.656;2022-12-29T00:58:49;99896.50;;;10.07;100.00
69306;BME280;56427;51.580;4.656;2022-12-29T01:01:14;99893.91;;;10.07;100.00
69306;BME280;56427;51.580;4.656;2022-12-29T01:03:39;99875.47;;;10.10;100.00
69306;BME280;56427;51.580;4.656;2022-12-29T01:06:09;99878.22;;;10.09;100.00
69306;BME280;56427;51.580;4.656;2022-12-29T01:08:35;99886.94;;;10.08;100.00
69306;BME280;56427;51.580;4.656;2022-12-29T01:11:06;99886.56;;;10.03;100.00
69306;BME280;56427;51.580;4.656;2022-12-29T01:13:32;99893.25;;;10.05;100.00
69306;BME280;56427;51.580;4.656;2022-12-29T01:15:57;99893.09;;;10.07;100.00
69306;BME280;56427;51.580;4.656;2022-12-29T01:18:24;99886.72;;;10.19;100.00
69306;BME280;56427;51.580;4.656;2022-12-29T01:20:50;99891.09;;;10.19;100.00
69306;BME280;56427;51.580;4.656;2022-12-29T01:23:16;99894.94;;;10.14;100.00
69306;BME280;56427;51.580;4.656;2022-12-29T01:25:41;99893.41;;;10.04;100.00
69306;BME280;56427;51.580;4.656;2022-12-29T01:28:07;99898.78;;;9.92;100.00
69306;BME280;56427;51.580;4.656;2022-12-29T01:30:36;99882.28;;;9.93;100.00
69306;BME280;56427;51.580;4.656;2022-12-29T01:33:01;99897.16;;;9.91;100.00
69306;BME280;56427;51.580;4.656;2022-12-29T01:35:27;99895.16;;;9.85;100.00
69306;BME280;56427;51.580;4.656;2022-12-29T01:37:53;99894.63;;;9.82;100.00
69306;BME280;56427;51.580;4.656;2022-12-29T01:40:18;99900.25;;;9.77;100.00
69306;BME280;56427;51.580;4.656;2022-12-29T01:42:44;99894.97;;;9.69;100.00
69306;BME280;56427;51.580;4.656;2022-12-29T01:45:14;99898.81;;;9.65;100.00
69306;BME280;56427;51.580;4.656;2022-12-29T01:47:47;99902.22;;;9.65;100.00
69306;BME280;56427;51.580;4.656;2022-12-29T01:50:17;99911.91;;;9.63;100.00
69306;BME280;56427;51.580;4.656;2022-12-29T01:52:49;99909.84;;;9.67;100.00
69306;BME280;56427;51.580;4.656;2022-12-29T01:55:16;99905.34;;;9.69;100.00
69306;BME280;56427;51.580;4.656;2022-12-29T01:57:45;99896.38;;;9.63;100.00
69306;BME280;56427;51.580;4.656;2022-12-29T02:00:13;99896.31;;;9.73;100.00
69306;BME280;56427;51.580;4.656;2022-12-29T02:02:41;99907.19;;;9.76;100.00
69306;BME280;56427;51.580;4.656;2022-12-29T02:05:16;99902.72;;;9.79;100.00
69306;BME280;56427;51.580;4.656;2022-12-29T02:07:44;99902.09;;;9.85;100.00
69306;BME280;56427;51.580;4.656;2022-12-29T02:10:10;99895.38;;;9.74;100.00
69306;BME280;56427;51.580;4.656;2022-12-29T02:12:35;99899.66;;;9.83;100.00
69306;BME280;56427;51.580;4.656;2022-12-29T02:15:02;99897.69;;;9.95;100.00
69306;BME280;56427;51.580;4.656;2022-12-29T02:20:17;99890.66;;;10.05;100.00
69306;BME280;56427;51.580;4.656;2022-12-29T02:26:26;99899.59;;;9.93;100.00
69306;BME280;56427;51.580;4.656;2022-12-29T02:36:43;99890.75;;;9.68;100.00
69306;BME280;56427;51.580;4.656;2022-12-29T02:39:15;99871.06;;;9.75;100.00
69306;BME280;56427;51.580;4.656;2022-12-29T02:41:58;99893.56;;;9.74;100.00
69306;BME280;56427;51.580;4.656;2022-12-29T02:44:35;99893.91;;;9.62;100.00
69306;BME280;56427;51.580;4.656;2022-12-29T02:47:16;99871.16;;;9.55;100.00
69306;BME280;56427;51.580;4.656;2022-12-29T02:50:05;99880.69;;;9.65;100.00
69306;BME280;56427;51.580;4.656;2022-12-29T02:52:40;99880.25;;;9.69;100.00
69306;BME280;56427;51.580;4.656;2022-12-29T02:55:10;99876.03;;;9.86;100.00
69306;BME280;56427;51.580;4.656;2022-12-29T02:57:36;99878.78;;;9.85;100.00
69306;BME280;56427;51.580;4.656;2022-12-29T03:00:11;99881.38;;;9.85;100.00
69306;BME280;56427;51.580;4.656;2022-12-29T03:10:48;99864.44;;;9.90;100.00
69306;BME280;56427;51.580;4.656;2022-12-29T03:13:39;99857.00;;;9.77;100.00
69306;BME280;56427;51.580;4.656;2022-12-29T03:19:04;99875.31;;;9.94;100.00
69306;BME280;56427;51.580;4.656;2022-12-29T03:21:38;99881.03;;;9.98;100.00
69306;BME280;56427;51.580;4.656;2022-12-29T03:24:27;99888.56;;;9.91;100.00
69306;BME280;56427;51.580;4.656;2022-12-29T03:26:57;99881.00;;;9.80;100.00
69306;BME280;56427;51.580;4.656;2022-12-29T03:29:24;99885.66;;;9.76;100.00
69306;BME280;56427;51.580;4.656;2022-12-29T03:31:53;99893.88;;;9.71;100.00
69306;BME280;56427;51.580;4.656;2022-12-29T03:34:20;99888.81;;;9.70;100.00
69306;BME280;56427;51.580;4.656;2022-12-29T03:36:52;99890.66;;;9.60;100.00
69306;BME280;56427;51.580;4.656;2022-12-29T03:39:20;99878.41;;;9.52;100.00
69306;BME280;56427;51.580;4.656;2022-12-29T03:41:48;99889.56;;;9.34;100.00
69306;BME280;56427;51.580;4.656;2022-12-29T03:44:15;99884.09;;;9.37;100.00
69306;BME280;56427;51.580;4.656;2022-12-29T03:46:40;99883.16;;;9.29;100.00
69306;BME280;56427;51.580;4.656;2022-12-29T03:49:06;99876.38;;;9.28;100.00
69306;BME280;56427;51.580;4.656;2022-12-29T03:51:31;99881.59;;;9.18;100.00
69306;BME280;56427;51.580;4.656;2022-12-29T03:53:56;99885.25;;;9.15;100.00
69306;BME280;56427;51.580;4.656;2022-12-29T03:56:22;99878.06;;;9.09;100.00
69306;BME280;56427;51.580;4.656;2022-12-29T03:58:47;99880.50;;;9.11;100.00
69306;BME280;56427;51.580;4.656;2022-12-29T04:01:12;99884.47;;;9.05;100.00
69306;BME280;56427;51.580;4.656;2022-12-29T04:03:37;99891.25;;;9.16;100.00
69306;BME280;56427;51.580;4.656;2022-12-29T04:06:03;99887.59;;;9.09;100.00
69306;BME280;56427;51.580;4.656;2022-12-29T04:08:29;99899.72;;;9.08;100.00
69306;BME280;56427;51.580;4.656;2022-12-29T04:10:55;99915.50;;;9.15;100.00
69306;BME280;56427;51.580;4.656;2022-12-29T04:13:20;99916.34;;;9.06;100.00
69306;BME280;56427;51.580;4.656;2022-12-29T04:15:45;99910.38;;;8.95;100.00
69306;BME280;56427;51.580;4.656;2022-12-29T04:18:12;99915.44;;;8.87;100.00
69306;BME280;56427;51.580;4.656;2022-12-29T04:20:37;99911.91;;;8.88;100.00
69306;BME280;56427;51.580;4.656;2022-12-29T04:23:21;99931.13;;;8.76;100.00
69306;BME280;56427;51.580;4.656;2022-12-29T04:25:47;99931.09;;;8.86;100.00
69306;BME280;56427;51.580;4.656;2022-12-29T04:28:13;99927.59;;;8.77;100.00
69306;BME280;56427;51.580;4.656;2022-12-29T04:30:38;99920.78;;;8.66;100.00
69306;BME280;56427;51.580;4.656;2022-12-29T04:33:03;99916.28;;;8.68;100.00
69306;BME280;56427;51.580;4.656;2022-12-29T04:35:28;99921.31;;;8.70;100.00
69306;BME280;56427;51.580;4.656;2022-12-29T04:37:54;99918.31;;;8.74;100.00
69306;BME280;56427;51.580;4.656;2022-12-29T04:40:19;99917.63;;;8.82;100.00
69306;BME280;56427;51.580;4.656;2022-12-29T04:42:44;99919.69;;;8.88;100.00
69306;BME280;56427;51.580;4.656;2022-12-29T04:45:10;99910.78;;;9.00;100.00
69306;BME280;56427;51.580;4.656;2022-12-29T04:47:35;99901.34;;;9.09;100.00
69306;BME280;56427;51.580;4.656;2022-12-29T04:50:01;99897.88;;;9.28;100.00
69306;BME280;56427;51.580;4.656;2022-12-29T04:52:26;99899.56;;;9.19;100.00
69306;BME280;56427;51.580;4.656;2022-12-29T04:54:51;99876.03;;;9.13;100.00
69306;BME280;56427;51.580;4.656;2022-12-29T04:57:16;99872.25;;;9.35;100.00
69306;BME280;56427;51.580;4.656;2022-12-29T04:59:42;99871.34;;;9.26;100.00
69306;BME280;56427;51.580;4.656;2022-12-29T05:02:07;99896.31;;;9.45;100.00
69306;BME280;56427;51.580;4.656;2022-12-29T05:04:32;99893.19;;;9.42;100.00
69306;BME280;56427;51.580;4.656;2022-12-29T05:06:57;99899.63;;;9.37;100.00
69306;BME280;56427;51.580;4.656;2022-12-29T05:09:23;99898.00;;;9.36;100.00
69306;BME280;56427;51.580;4.656;2022-12-29T05:11:49;99906.44;;;9.38;100.00
69306;BME280;56427;51.580;4.656;2022-12-29T05:14:14;99924.13;;;9.43;100.00
69306;BME280;56427;51.580;4.656;2022-12-29T05:16:40;99931.25;;;9.41;100.00
69306;BME280;56427;51.580;4.656;2022-12-29T05:19:05;99939.56;;;9.35;100.00
69306;BME280;56427;51.580;4.656;2022-12-29T05:21:30;99948.13;;;9.35;100.00
69306;BME280;56427;51.580;4.656;2022-12-29T05:23:56;99955.38;;;9.32;100.00
69306;BME280;56427;51.580;4.656;2022-12-29T05:26:21;99959.09;;;9.29;100.00
69306;BME280;56427;51.580;4.656;2022-12-29T05:28:46;99945.16;;;9.30;100.00
69306;BME280;56427;51.580;4.656;2022-12-29T05:31:11;99959.09;;;9.29;100.00
69306;BME280;56427;51.580;4.656;2022-12-29T05:33:37;99967.13;;;9.26;100.00
69306;BME280;56427;51.580;4.656;2022-12-29T05:36:06;99958.50;;;9.35;100.00
69306;BME280;56427;51.580;4.656;2022-12-29T05:38:32;99960.16;;;9.27;100.00
69306;BME280;56427;51.580;4.656;2022-12-29T05:40:57;99955.41;;;9.22;100.00
69306;BME280;56427;51.580;4.656;2022-12-29T05:43:23;99941.22;;;9.36;100.00
69306;BME280;56427;51.580;4.656;2022-12-29T05:45:49;99957.97;;;9.32;100.00
69306;BME280;56427;51.580;4.656;2022-12-29T05:48:14;99959.09;;;9.29;100.00
69306;BME280;56427;51.580;4.656;2022-12-29T05:50:40;99952.69;;;9.24;100.00
69306;BME280;56427;51.580;4.656;2022-12-29T05:53:05;99959.38;;;9.26;100.00
69306;BME280;56427;51.580;4.656;2022-12-29T05:55:30;99945.59;;;9.26;100.00
69306;BME280;56427;51.580;4.656;2022-12-29T05:57:56;99938.50;;;9.28;100.00
69306;BME280;56427;51.580;4.656;2022-12-29T06:00:21;99949.81;;;9.27;100.00
69306;BME280;56427;51.580;4.656;2022-12-29T06:02:47;99951.22;;;9.21;100.00
69306;BME280;56427;51.580;4.656;2022-12-29T06:05:12;99939.03;;;9.31;100.00
69306;BME280;56427;51.580;4.656;2022-12-29T06:07:37;99956.63;;;9.28;100.00
69306;BME280;56427;51.580;4.656;2022-12-29T06:10:04;99950.22;;;9.22;100.00
69306;BME280;56427;51.580;4.656;2022-12-29T06:12:30;99952.84;;;9.12;100.00
69306;BME280;56427;51.580;4.656;2022-12-29T06:14:55;99949.56;;;9.20;100.00
69306;BME280;56427;51.580;4.656;2022-12-29T06:17:20;99952.78;;;9.32;100.00
69306;BME280;56427;51.580;4.656;2022-12-29T06:19:45;99954.47;;;9.13;100.00
69306;BME280;56427;51.580;4.656;2022-12-29T06:22:11;99957.72;;;9.25;100.00
69306;BME280;56427;51.580;4.656;2022-12-29T06:24:37;99948.44;;;9.23;100.00
69306;BME280;56427;51.580;4.656;2022-12-29T06:27:03;99941.94;;;9.18;100.00
69306;BME280;56427;51.580;4.656;2022-12-29T06:29:28;99960.03;;;9.28;100.00
69306;BME280;56427;51.580;4.656;2022-12-29T06:31:53;99934.03;;;9.20;100.00
69306;BME280;56427;51.580;4.656;2022-12-29T06:34:23;99947.78;;;9.20;100.00
69306;BME280;56427;51.580;4.656;2022-12-29T06:36:48;99965.91;;;9.20;100.00
69306;BME280;56427;51.580;4.656;2022-12-29T06:39:13;99969.47;;;9.10;100.00
69306;BME280;56427;51.580;4.656;2022-12-29T06:41:39;99973.00;;;9.09;100.00
69306;BME280;56427;51.580;4.656;2022-12-29T06:44:04;99979.97;;;9.08;100.00
69306;BME280;56427;51.580;4.656;2022-12-29T06:46:29;99971.09;;;9.11;100.00
69306;BME280;56427;51.580;4.656;2022-12-29T06:48:55;99979.84;;;9.10;100.00
69306;BME280;56427;51.580;4.656;2022-12-29T06:51:20;99986.47;;;9.22;100.00
69306;BME280;56427;51.580;4.656;2022-12-29T06:53:45;99983.88;;;9.22;100.00
69306;BME280;56427;51.580;4.656;2022-12-29T06:56:10;99979.81;;;9.19;100.00
69306;BME280;56427;51.580;4.656;2022-12-29T06:58:36;99982.41;;;9.19;100.00
69306;BME280;56427;51.580;4.656;2022-12-29T07:01:01;100006.94;;;9.15;100.00
69306;BME280;56427;51.580;4.656;2022-12-29T07:03:26;100004.47;;;9.14;100.00
69306;BME280;56427;51.580;4.656;2022-12-29T07:05:52;99986.06;;;9.17;100.00
69306;BME280;56427;51.580;4.656;2022-12-29T07:08:17;99988.97;;;9.04;100.00
69306;BME280;56427;51.580;4.656;2022-12-29T07:10:42;99997.84;;;9.01;100.00
69306;BME280;56427;51.580;4.656;2022-12-29T07:13:07;100000.28;;;9.13;100.00
69306;BME280;56427;51.580;4.656;2022-12-29T07:15:34;99989.50;;;8.98;100.00
69306;BME280;56427;51.580;4.656;2022-12-29T07:17:59;99975.34;;;9.02;100.00
69306;BME280;56427;51.580;4.656;2022-12-29T07:20:25;99987.47;;;9.11;100.00
69306;BME280;56427;51.580;4.656;2022-12-29T07:22:50;99991.81;;;9.01;100.00
69306;BME280;56427;51.580;4.656;2022-12-29T07:25:15;99977.25;;;9.00;100.00
69306;BME280;56427;51.580;4.656;2022-12-29T07:27:41;99989.34;;;9.09;100.00
69306;BME280;56427;51.580;4.656;2022-12-29T07:30:06;99998.09;;;8.98;100.00
69306;BME280;56427;51.580;4.656;2022-12-29T07:32:33;100005.75;;;8.90;100.00
69306;BME280;56427;51.580;4.656;2022-12-29T07:34:59;100012.13;;;8.96;100.00
69306;BME280;56427;51.580;4.656;2022-12-29T07:37:24;100009.25;;;9.09;100.00
69306;BME280;56427;51.580;4.656;2022-12-29T07:39:50;100026.28;;;9.11;100.00
69306;BME280;56427;51.580;4.656;2022-12-29T07:42:15;100022.59;;;8.94;100.00
69306;BME280;56427;51.580;4.656;2022-12-29T07:44:40;100016.22;;;8.98;100.00
69306;BME280;56427;51.580;4.656;2022-12-29T07:47:06;100021.00;;;9.03;100.00
69306;BME280;56427;51.580;4.656;2022-12-29T07:49:31;100021.41;;;8.98;100.00
69306;BME280;56427;51.580;4.656;2022-12-29T07:51:56;100018.53;;;8.92;100.00
69306;BME280;56427;51.580;4.656;2022-12-29T07:54:21;100016.09;;;8.90;100.00
69306;BME280;56427;51.580;4.656;2022-12-29T07:56:47;100014.56;;;8.78;100.00
69306;BME280;56427;51.580;4.656;2022-12-29T07:59:13;100024.78;;;8.79;100.00
69306;BME280;56427;51.580;4.656;2022-12-29T08:01:38;100020.28;;;8.81;100.00
69306;BME280;56427;51.580;4.656;2022-12-29T08:04:04;100029.69;;;8.92;100.00
69306;BME280;56427;51.580;4.656;2022-12-29T08:06:29;100016.63;;;8.94;100.00
69306;BME280;56427;51.580;4.656;2022-12-29T08:08:56;100013.91;;;8.95;100.00
69306;BME280;56427;51.580;4.656;2022-12-29T08:11:21;100014.44;;;8.89;100.00
69306;BME280;56427;51.580;4.656;2022-12-29T08:13:47;100004.22;;;8.97;100.00
69306;BME280;56427;51.580;4.656;2022-12-29T08:16:12;100000.03;;;8.96;100.00
69306;BME280;56427;51.580;4.656;2022-12-29T08:18:38;100000.53;;;9.10;100.00
69306;BME280;56427;51.580;4.656;2022-12-29T08:21:04;100012.09;;;9.15;100.00
69306;BME280;56427;51.580;4.656;2022-12-29T08:23:30;100002.00;;;9.22;100.00
69306;BME280;56427;51.580;4.656;2022-12-29T08:25:59;99991.38;;;9.25;100.00
69306;BME280;56427;51.580;4.656;2022-12-29T08:28:25;100003.63;;;9.33;100.00
69306;BME280;56427;51.580;4.656;2022-12-29T08:30:51;99986.84;;;9.37;100.00
69306;BME280;56427;51.580;4.656;2022-12-29T08:33:16;100010.81;;;9.39;100.00
69306;BME280;56427;51.580;4.656;2022-12-29T08:35:41;100007.81;;;9.44;100.00
69306;BME280;56427;51.580;4.656;2022-12-29T08:38:07;100007.84;;;9.34;100.00
69306;BME280;56427;51.580;4.656;2022-12-29T08:40:32;100008.09;;;9.40;100.00
69306;BME280;56427;51.580;4.656;2022-12-29T08:42:57;100017.09;;;9.46;100.00
69306;BME280;56427;51.580;4.656;2022-12-29T08:45:22;100017.75;;;9.48;100.00
69306;BME280;56427;51.580;4.656;2022-12-29T08:47:48;100028.53;;;9.44;100.00
69306;BME280;56427;51.580;4.656;2022-12-29T08:50:13;100036.31;;;9.44;100.00
69306;BME280;56427;51.580;4.656;2022-12-29T08:52:38;100035.09;;;9.38;100.00
69306;BME280;56427;51.580;4.656;2022-12-29T08:55:04;100048.19;;;9.27;100.00
69306;BME280;56427;51.580;4.656;2022-12-29T08:57:29;100062.41;;;9.13;100.00
69306;BME280;56427;51.580;4.656;2022-12-29T08:59:55;100065.66;;;9.15;100.00
69306;BME280;56427;51.580;4.656;2022-12-29T09:02:20;100088.53;;;9.00;100.00
69306;BME280;56427;51.580;4.656;2022-12-29T09:04:45;100092.63;;;8.93;100.00
69306;BME280;56427;51.580;4.656;2022-12-29T09:07:11;100090.72;;;8.85;100.00
69306;BME280;56427;51.580;4.656;2022-12-29T09:09:36;100087.69;;;8.60;100.00
69306;BME280;56427;51.580;4.656;2022-12-29T09:12:01;100115.97;;;8.52;100.00
69306;BME280;56427;51.580;4.656;2022-12-29T09:14:27;100103.63;;;8.35;100.00
69306;BME280;56427;51.580;4.656;2022-12-29T09:16:53;100120.75;;;8.26;100.00
69306;BME280;56427;51.580;4.656;2022-12-29T09:19:37;100120.34;;;8.21;100.00
69306;BME280;56427;51.580;4.656;2022-12-29T09:22:02;100127.47;;;8.07;100.00
69306;BME280;56427;51.580;4.656;2022-12-29T09:24:28;100133.53;;;7.97;100.00
69306;BME280;56427;51.580;4.656;2022-12-29T09:26:53;100134.59;;;7.94;100.00
69306;BME280;56427;51.580;4.656;2022-12-29T09:29:18;100150.94;;;7.95;100.00
69306;BME280;56427;51.580;4.656;2022-12-29T09:31:44;100163.28;;;7.91;100.00
69306;BME280;56427;51.580;4.656;2022-12-29T09:34:09;100170.34;;;7.89;100.00
69306;BME280;56427;51.580;4.656;2022-12-29T09:36:34;100175.63;;;7.87;100.00
69306;BME280;56427;51.580;4.656;2022-12-29T09:38:59;100183.50;;;7.86;100.00
69306;BME280;56427;51.580;4.656;2022-12-29T09:41:39;100190.81;;;7.81;100.00
69306;BME280;56427;51.580;4.656;2022-12-29T09:44:26;100185.97;;;7.87;100.00
69306;BME280;56427;51.580;4.656;2022-12-29T09:46:56;100198.88;;;7.87;100.00
69306;BME280;56427;51.580;4.656;2022-12-29T09:49:43;100187.38;;;7.91;100.00
69306;BME280;56427;51.580;4.656;2022-12-29T09:52:32;100193.91;;;7.96;100.00
69306;BME280;56427;51.580;4.656;2022-12-29T09:55:11;100177.22;;;8.00;100.00
69306;BME280;56427;51.580;4.656;2022-12-29T09:57:45;100195.06;;;8.03;100.00
69306;BME280;56427;51.580;4.656;2022-12-29T10:00:21;100209.09;;;8.10;100.00
69306;BME280;56427;51.580;4.656;2022-12-29T10:02:57;100218.63;;;8.09;100.00
69306;BME280;56427;51.580;4.656;2022-12-29T10:10:54;100243.94;;;8.16;100.00
69306;BME280;56427;51.580;4.656;2022-12-29T10:13:43;100247.63;;;8.13;100.00
69306;BME280;56427;51.580;4.656;2022-12-29T10:16:20;100247.44;;;8.26;100.00
69306;BME280;56427;51.580;4.656;2022-12-29T10:24:16;100259.44;;;8.37;100.00
69306;BME280;56427;51.580;4.656;2022-12-29T10:26:45;100253.09;;;8.41;100.00
69306;BME280;56427;51.580;4.656;2022-12-29T10:29:19;100265.06;;;8.42;100.00
69306;BME280;56427;51.580;4.656;2022-12-29T10:31:52;100264.59;;;8.48;100.00
69306;BME280;56427;51.580;4.656;2022-12-29T10:34:28;100269.94;;;8.56;100.00
69306;BME280;56427;51.580;4.656;2022-12-29T10:37:00;100275.66;;;8.60;100.00
69306;BME280;56427;51.580;4.656;2022-12-29T10:39:34;100284.88;;;8.74;100.00
69306;BME280;56427;51.580;4.656;2022-12-29T10:42:14;100287.75;;;8.80;100.00
69306;BME280;56427;51.580;4.656;2022-12-29T10:44:42;100287.63;;;8.82;100.00
69306;BME280;56427;51.580;4.656;2022-12-29T10:47:15;100290.81;;;8.95;100.00
69306;BME280;56427;51.580;4.656;2022-12-29T10:49:42;100301.06;;;9.07;100.00
69306;BME280;56427;51.580;4.656;2022-12-29T10:52:11;100290.31;;;9.01;100.00
69306;BME280;56427;51.580;4.656;2022-12-29T10:55:00;100292.59;;;8.95;100.00
69306;BME280;56427;51.580;4.656;2022-12-29T10:57:39;100298.34;;;9.08;100.00
69306;BME280;56427;51.580;4.656;2022-12-29T11:00:16;100293.47;;;9.15;100.00
69306;BME280;56427;51.580;4.656;2022-12-29T11:03:06;100301.81;;;9.28;100.00
69306;BME280;56427;51.580;4.656;2022-12-29T11:08:11;100304.16;;;9.31;100.00
69306;BME280;56427;51.580;4.656;2022-12-29T11:10:41;100306.59;;;9.33;100.00
69306;BME280;56427;51.580;4.656;2022-12-29T11:13:16;100324.63;;;9.44;100.00
69306;BME280;56427;51.580;4.656;2022-12-29T11:15:47;100319.16;;;9.37;100.00
69306;BME280;56427;51.580;4.656;2022-12-29T11:18:40;100322.66;;;9.27;100.00
69306;BME280;56427;51.580;4.656;2022-12-29T11:21:09;100330.69;;;9.24;100.00
69306;BME280;56427;51.580;4.656;2022-12-29T11:23:59;100336.81;;;9.13;100.00
69306;BME280;56427;51.580;4.656;2022-12-29T11:26:27;100332.56;;;9.12;100.00
69306;BME280;56427;51.580;4.656;2022-12-29T11:31:44;100346.31;;;9.12;100.00
69306;BME280;56427;51.580;4.656;2022-12-29T11:36:47;100346.63;;;9.19;100.00
69306;BME280;56427;51.580;4.656;2022-12-29T11:39:50;100358.88;;;9.17;100.00
69306;BME280;56427;51.580;4.656;2022-12-29T11:42:17;100339.09;;;9.16;100.00
69306;BME280;56427;51.580;4.656;2022-12-29T11:44:48;100338.59;;;9.22;100.00
69306;BME280;56427;51.580;4.656;2022-12-29T11:47:23;100354.63;;;9.16;100.00
69306;BME280;56427;51.580;4.656;2022-12-29T11:49:52;100346.41;;;9.01;100.00
69306;BME280;56427;51.580;4.656;2022-12-29T11:52:24;100359.56;;;8.88;100.00
69306;BME280;56427;51.580;4.656;2022-12-29T11:54:52;100357.13;;;8.87;100.00
69306;BME280;56427;51.580;4.656;2022-12-29T11:57:19;100361.97;;;8.80;100.00
69306;BME280;56427;51.580;4.656;2022-12-29T11:59:54;100363.34;;;8.84;100.00
69306;BME280;56427;51.580;4.656;2022-12-29T12:05:43;100357.81;;;9.19;100.00
69306;BME280;56427;51.580;4.656;2022-12-29T12:11:10;100363.66;;;9.21;100.00
69306;BME280;56427;51.580;4.656;2022-12-29T12:13:52;100370.53;;;9.42;100.00
69306;BME280;56427;51.580;4.656;2022-12-29T12:19:41;100359.41;;;9.51;100.00
69306;BME280;56427;51.580;4.656;2022-12-29T12:22:16;100354.91;;;9.53;100.00
69306;BME280;56427;51.580;4.656;2022-12-29T12:24:53;100358.19;;;9.46;100.00
69306;BME280;56427;51.580;4.656;2022-12-29T12:27:28;100357.34;;;9.45;100.00
69306;BME280;56427;51.580;4.656;2022-12-29T12:30:01;100357.72;;;9.40;100.00
69306;BME280;56427;51.580;4.656;2022-12-29T12:32:48;100362.78;;;9.42;100.00
69306;BME280;56427;51.580;4.656;2022-12-29T12:38:31;100361.66;;;9.35;100.00
69306;BME280;56427;51.580;4.656;2022-12-29T12:43:36;100376.19;;;9.16;100.00
69306;BME280;56427;51.580;4.656;2022-12-29T12:54:08;100391.75;;;8.53;100.00
69306;BME280;56427;51.580;4.656;2022-12-29T13:04:48;100390.13;;;8.08;100.00
69306;BME280;56427;51.580;4.656;2022-12-29T13:07:52;100394.38;;;8.09;100.00
69306;BME280;56427;51.580;4.656;2022-12-29T13:10:32;100405.03;;;8.16;100.00
69306;BME280;56427;51.580;4.656;2022-12-29T13:13:05;100402.00;;;8.11;100.00
69306;BME280;56427;51.580;4.656;2022-12-29T13:15:54;100396.41;;;8.27;100.00
69306;BME280;56427;51.580;4.656;2022-12-29T13:18:44;100397.94;;;8.29;100.00
69306;BME280;56427;51.580;4.656;2022-12-29T13:26:54;100407.72;;;8.26;100.00
69306;BME280;56427;51.580;4.656;2022-12-29T13:29:34;100400.28;;;8.33;100.00
69306;BME280;56427;51.580;4.656;2022-12-29T13:35:12;100409.41;;;8.37;100.00
69306;BME280;56427;51.580;4.656;2022-12-29T13:37:51;100408.03;;;8.44;100.00
69306;BME280;56427;51.580;4.656;2022-12-29T13:40:21;100402.72;;;8.45;100.00
69306;BME280;56427;51.580;4.656;2022-12-29T13:42:48;100402.94;;;8.54;100.00
69306;BME280;56427;51.580;4.656;2022-12-29T13:45:17;100407.84;;;8.57;100.00
69306;BME280;56427;51.580;4.656;2022-12-29T13:47:47;100407.84;;;8.57;100.00
69306;BME280;56427;51.580;4.656;2022-12-29T13:50:21;100407.84;;;8.57;100.00
69306;BME280;56427;51.580;4.656;2022-12-29T13:55:39;100411.00;;;8.60;100.00
69306;BME280;56427;51.580;4.656;2022-12-29T14:01:18;100404.44;;;8.56;100.00
69306;BME280;56427;51.580;4.656;2022-12-29T14:03:49;100401.84;;;8.56;100.00
69306;BME280;56427;51.580;4.656;2022-12-29T14:06:20;100402.28;;;8.61;100.00
69306;BME280;56427;51.580;4.656;2022-12-29T14:08:47;100407.84;;;8.57;100.00
69306;BME280;56427;51.580;4.656;2022-12-29T14:11:15;100409.47;;;8.58;100.00
69306;BME280;56427;51.580;4.656;2022-12-29T14:13:44;100410.69;;;8.54;100.00
69306;BME280;56427;51.580;4.656;2022-12-29T14:16:33;100412.44;;;8.53;100.00
69306;BME280;56427;51.580;4.656;2022-12-29T14:19:11;100420.72;;;8.47;100.00
69306;BME280;56427;51.580;4.656;2022-12-29T14:21:38;100434.34;;;8.38;100.00
69306;BME280;56427;51.580;4.656;2022-12-29T14:26:51;100419.47;;;8.19;100.00
69306;BME280;56427;51.580;4.656;2022-12-29T14:31:48;100427.34;;;8.17;100.00
69306;BME280;56427;51.580;4.656;2022-12-29T14:50:03;100426.88;;;8.12;100.00
69306;BME280;56427;51.580;4.656;2022-12-29T14:52:30;100425.25;;;8.22;100.00
69306;BME280;56427;51.580;4.656;2022-12-29T14:57:51;100424.88;;;8.16;100.00
69306;BME280;56427;51.580;4.656;2022-12-29T15:00:29;100435.50;;;8.13;100.00
69306;BME280;56427;51.580;4.656;2022-12-29T15:03:05;100429.25;;;8.15;100.00